Time;durP1;ratioP1;P1;durP2;ratioP2;P2;SDS_P1;SDS_P2;PMS_P1;PMS_P2;Temp;Humidity;BMP_temperature;BMP_pressure;BME280_temperature;BME280_humidity;BME280_pressure;Samples;Min_cycle;Max_cycle;Signal;HPM_P1;HPM_P2
2021/09/12 00:00:14;;;;;;;10.00;9.10;;;17.20;99.90;;;;;;6190887;23;20433;-88
2021/09/12 00:02:41;;;;;;;10.17;8.10;;;17.20;99.90;;;;;;6190163;23;20425;-89
2021/09/12 00:05:09;;;;;;;9.50;8.60;;;17.20;99.90;;;;;;6191925;23;20405;-88
2021/09/12 00:07:36;;;;;;;10.33;9.13;;;17.10;99.90;;;;;;6198817;23;20419;-89
2021/09/12 00:10:04;;;;;;;9.83;8.80;;;17.10;99.90;;;;;;6185768;23;20788;-89
2021/09/12 00:12:31;;;;;;;11.00;10.03;;;17.10;99.90;;;;;;6193092;23;20452;-88
2021/09/12 00:14:58;;;;;;;11.07;9.70;;;17.00;99.90;;;;;;6191532;23;20406;-89
2021/09/12 00:17:26;;;;;;;9.93;8.93;;;17.00;99.90;;;;;;6197247;23;20450;-88
2021/09/12 00:19:53;;;;;;;11.97;10.57;;;17.10;99.90;;;;;;6211683;23;20413;-86
2021/09/12 00:22:20;;;;;;;9.80;8.90;;;17.10;99.90;;;;;;6205096;23;20398;-89
2021/09/12 00:24:46;;;;;;;11.07;10.00;;;17.00;99.90;;;;;;6200158;23;20863;-88
2021/09/12 00:27:13;;;;;;;11.37;10.20;;;17.00;99.90;;;;;;6196175;23;20403;-87
2021/09/12 00:33:13;;;;;;;10.30;9.30;;;17.00;99.90;;;;;;6202049;23;20449;-93
2021/09/12 00:35:54;;;;;;;9.60;8.80;;;16.90;99.90;;;;;;6213013;23;20412;-93
2021/09/12 00:41:21;;;;;;;12.80;11.57;;;16.90;99.90;;;;;;6214532;23;20477;-93
2021/09/12 00:44:08;;;;;;;13.10;11.80;;;16.80;99.90;;;;;;6212220;23;20390;-92
2021/09/12 00:52:50;;;;;;;14.53;13.13;;;16.80;99.90;;;;;;6202788;23;20433;-94
2021/09/12 00:55:30;;;;;;;15.67;14.17;;;16.70;99.90;;;;;;6203449;23;20445;-93
2021/09/12 01:00:56;;;;;;;16.77;14.97;;;16.70;99.90;;;;;;6197613;23;20958;-93
2021/09/12 01:06:24;;;;;;;16.33;14.83;;;16.60;99.90;;;;;;6213060;23;20393;-93
2021/09/12 01:09:19;;;;;;;14.63;12.93;;;16.60;99.90;;;;;;6214550;23;20414;-93
2021/09/12 01:11:50;;;;;;;16.33;13.50;;;16.50;99.90;;;;;;6213755;23;20442;-92
2021/09/12 01:14:39;;;;;;;19.53;14.53;;;16.50;99.90;;;;;;6210419;23;20434;-94
2021/09/12 01:17:16;;;;;;;15.67;14.03;;;16.60;99.90;;;;;;6206089;23;20410;-95
2021/09/12 01:22:55;;;;;;;16.93;15.13;;;16.50;99.90;;;;;;6203122;23;20473;-94
2021/09/12 01:26:03;;;;;;;17.53;15.80;;;16.60;99.90;;;;;;6204309;23;20412;-94
2021/09/12 01:28:55;;;;;;;16.17;13.87;;;16.50;99.90;;;;;;6208035;23;20477;-94
2021/09/12 01:31:25;;;;;;;15.87;14.27;;;16.40;99.90;;;;;;6204700;23;20442;-94
2021/09/12 01:42:46;;;;;;;16.07;14.30;;;16.30;99.90;;;;;;6201287;23;20568;-93
2021/09/12 01:48:09;;;;;;;14.83;13.37;;;16.30;99.90;;;;;;6183186;23;20446;-93
2021/09/12 02:22:09;;;;;;;;;;;;;;;;;;;;;
2021/09/12 02:25:31;;;;;;;;;;;;;;;;;;;;;
2021/09/12 02:35:45;;;;;;;14.47;13.10;;;15.90;99.90;;;;;;5925699;23;21279;-92
2021/09/12 02:45:45;;;;;;;;;;;;;;;;;;;;;
2021/09/12 04:30:18;;;;;;;16.03;14.47;;;15.30;99.90;;;;;;6196562;23;20460;-94
2021/09/12 04:48:32;;;;;;;16.30;14.60;;;15.20;99.90;;;;;;6147147;23;20460;-94
2021/09/12 04:51:03;;;;;;;18.03;15.83;;;15.20;99.90;;;;;;6149132;23;20524;-91
2021/09/12 04:53:30;;;;;;;17.17;15.37;;;15.20;99.90;;;;;;6187749;23;20979;-88
2021/09/12 04:56:10;;;;;;;18.60;16.80;;;15.20;99.90;;;;;;6188691;23;20945;-90
2021/09/12 04:58:36;;;;;;;17.13;14.87;;;15.30;99.90;;;;;;6187444;23;20500;-89
2021/09/12 05:01:03;;;;;;;17.73;16.07;;;15.30;99.90;;;;;;6186363;23;20416;-88
2021/09/12 05:03:32;;;;;;;18.70;15.70;;;15.30;99.90;;;;;;6192147;23;20437;-88
2021/09/12 05:05:58;;;;;;;16.50;14.80;;;15.30;99.90;;;;;;6193931;23;20404;-88
2021/09/12 05:08:25;;;;;;;17.37;15.77;;;15.30;99.90;;;;;;6188725;23;20744;-90
2021/09/12 05:10:52;;;;;;;16.13;14.37;;;15.30;99.90;;;;;;6185134;23;20442;-90
2021/09/12 05:13:22;;;;;;;17.43;15.20;;;15.30;99.90;;;;;;6189012;23;20444;-95
2021/09/12 05:15:49;;;;;;;17.87;16.00;;;15.30;99.90;;;;;;6196544;23;20409;-95
2021/09/12 05:18:16;;;;;;;17.93;16.13;;;15.30;99.90;;;;;;6207655;23;20437;-93
2021/09/12 05:20:50;;;;;;;17.10;14.87;;;15.30;99.90;;;;;;6213687;23;20429;-87
2021/09/12 05:23:17;;;;;;;17.50;15.60;;;15.20;99.90;;;;;;6213365;23;20453;-88
2021/09/12 05:25:44;;;;;;;17.00;15.23;;;15.20;99.90;;;;;;6206779;23;20410;-92
2021/09/12 05:28:18;;;;;;;17.20;15.40;;;15.20;99.90;;;;;;6206276;23;20421;-92
2021/09/12 05:43:54;;;;;;;;;;;;;;;;;;;;;
2021/09/12 05:46:36;;;;;;;15.50;13.90;;;15.30;99.90;;;;;;6197691;23;20414;-92
2021/09/12 05:49:13;;;;;;;16.33;14.73;;;15.30;99.90;;;;;;6192726;23;20402;-93
2021/09/12 05:52:23;;;;;;;17.30;15.30;;;15.30;99.90;;;;;;6204201;23;20433;-91
2021/09/12 05:58:45;;;;;;;13.47;12.10;;;15.30;99.90;;;;;;6195216;23;20398;-93
2021/09/12 06:01:25;;;;;;;;;;;;;;;;;;;;;
2021/09/12 06:03:56;;;;;;;14.13;12.77;;;15.50;99.90;;;;;;6214445;23;20473;-91
2021/09/12 06:06:34;;;;;;;15.67;14.10;;;15.70;99.90;;;;;;6214877;23;20437;-91
2021/09/12 06:09:38;;;;;;;14.37;13.00;;;15.80;99.90;;;;;;6214164;23;20402;-90
2021/09/12 06:22:46;;;;;;;15.97;14.47;;;15.90;99.90;;;;;;6072225;23;20493;-89
2021/09/12 06:25:15;;;;;;;17.47;15.87;;;15.90;99.90;;;;;;6196830;23;20410;-88
2021/09/12 06:27:42;;;;;;;15.33;13.83;;;16.00;99.90;;;;;;6187383;23;20398;-87
2021/09/12 06:32:51;;;;;;;15.23;13.83;;;16.20;99.90;;;;;;6190423;23;20953;-83
2021/09/12 06:35:17;;;;;;;15.17;13.67;;;16.30;99.90;;;;;;6193197;23;20414;-82
2021/09/12 06:37:45;;;;;;;16.50;14.40;;;16.20;99.90;;;;;;6192998;23;20740;-82
2021/09/12 06:40:13;;;;;;;15.30;13.90;;;16.20;99.90;;;;;;6191220;23;20399;-83
2021/09/12 06:42:41;;;;;;;12.90;11.67;;;16.20;99.90;;;;;;6197654;23;20416;-82
2021/09/12 06:45:09;;;;;;;14.60;13.20;;;16.20;99.90;;;;;;6198138;23;20398;-85
2021/09/12 06:47:35;;;;;;;13.70;12.30;;;16.20;99.90;;;;;;6196552;23;20387;-82
2021/09/12 06:50:02;;;;;;;12.87;11.63;;;16.40;99.90;;;;;;6197833;23;20417;-82
2021/09/12 06:52:29;;;;;;;12.30;11.20;;;16.60;99.90;;;;;;6198280;23;20476;-83
2021/09/12 06:54:57;;;;;;;11.17;10.27;;;16.90;99.90;;;;;;6199791;23;20412;-82
2021/09/12 06:57:24;;;;;;;11.20;10.13;;;16.90;99.90;;;;;;6203595;23;20416;-80
2021/09/12 06:59:50;;;;;;;11.13;9.90;;;17.00;99.90;;;;;;6206347;23;20722;-80
2021/09/12 07:02:17;;;;;;;10.30;9.33;;;16.90;99.90;;;;;;6206507;23;20501;-81
2021/09/12 07:04:44;;;;;;;14.03;12.73;;;16.80;99.90;;;;;;6203247;23;20409;-80
2021/09/12 07:07:11;;;;;;;11.00;9.80;;;16.70;99.90;;;;;;6204656;23;20485;-81
2021/09/12 07:09:37;;;;;;;11.67;10.63;;;16.60;99.90;;;;;;6199324;23;20395;-80
2021/09/12 07:12:07;;;;;;;9.97;9.07;;;16.60;99.90;;;;;;6198425;23;20426;-83
2021/09/12 07:14:33;;;;;;;10.20;9.20;;;16.70;99.90;;;;;;6201297;23;20455;-80
2021/09/12 07:17:00;;;;;;;12.30;11.20;;;16.80;99.90;;;;;;6198243;23;20399;-92
2021/09/12 07:19:27;;;;;;;10.50;9.60;;;16.80;99.90;;;;;;6205589;23;20448;-90
2021/09/12 07:21:55;;;;;;;9.27;8.43;;;17.00;99.90;;;;;;6211346;23;20425;-93
2021/09/12 07:24:22;;;;;;;9.20;8.47;;;17.10;99.90;;;;;;6209157;23;20437;-93
2021/09/12 07:26:49;;;;;;;8.80;8.10;;;17.20;99.90;;;;;;6204482;23;20741;-94
2021/09/12 07:31:54;;;;;;;8.30;7.70;;;17.40;99.90;;;;;;6210500;23;20502;-93
2021/09/12 07:36:58;;;;;;;10.23;8.33;;;17.60;99.90;;;;;;6197406;23;20440;-96
2021/09/12 07:39:25;;;;;;;8.67;7.97;;;17.70;99.90;;;;;;6200900;23;20444;-91
2021/09/12 07:41:51;;;;;;;7.90;7.30;;;17.70;99.90;;;;;;6202485;23;20465;-89
2021/09/12 07:44:19;;;;;;;7.47;6.87;;;18.10;99.90;;;;;;6199481;23;20481;-81
2021/09/12 07:46:45;;;;;;;6.93;6.37;;;18.70;99.90;;;;;;6194672;23;20395;-81
2021/09/12 07:49:13;;;;;;;7.50;6.80;;;18.80;99.90;;;;;;6196300;23;20395;-79
2021/09/12 07:51:40;;;;;;;7.30;6.70;;;18.90;99.90;;;;;;6200525;23;20428;-79
2021/09/12 07:54:07;;;;;;;7.20;6.70;;;19.00;99.90;;;;;;6201232;23;20423;-82
2021/09/12 07:56:36;;;;;;;6.50;6.00;;;19.00;99.90;;;;;;6195265;23;20410;-93
2021/09/12 08:14:38;;;;;;;;;;;;;;;;;;;;;
2021/09/12 08:23:54;;;;;;;6.03;5.63;;;19.00;99.90;;;;;;6147841;23;20465;-92
2021/09/12 08:30:07;;;;;;;6.40;5.80;;;19.20;99.90;;;;;;6196637;23;20423;-93
2021/09/12 08:35:43;;;;;;;6.63;6.00;;;20.20;99.90;;;;;;6193748;23;20963;-94
2021/09/12 08:38:54;;;;;;;4.80;4.47;;;21.00;99.90;;;;;;6195843;23;20424;-94
2021/09/12 08:42:16;;;;;;;6.00;5.50;;;21.30;99.90;;;;;;6194777;23;20458;-94
2021/09/12 08:58:24;;;;;;;4.70;4.40;;;26.00;95.70;;;;;;6174324;23;20417;-93
2021/09/12 09:00:52;;;;;;;5.47;4.93;;;26.70;93.70;;;;;;6126794;23;20431;-94
2021/09/12 09:03:19;;;;;;;4.63;4.33;;;29.00;90.40;;;;;;6200746;23;20494;-92
2021/09/12 09:05:46;;;;;;;4.27;3.97;;;30.20;82.80;;;;;;6194172;23;20892;-94
2021/09/12 09:08:14;;;;;;;4.90;4.50;;;31.40;76.90;;;;;;6193022;23;20481;-94
2021/09/12 09:10:45;;;;;;;4.00;3.70;;;31.90;72.80;;;;;;6209539;23;20460;-93
2021/09/12 09:26:45;;;;;;;4.13;3.43;;;34.40;57.90;;;;;;6047407;23;20917;-94
2021/09/12 09:29:13;;;;;;;4.10;3.70;;;34.10;56.10;;;;;;6178820;23;20493;-94
2021/09/12 09:31:41;;;;;;;3.10;2.80;;;34.90;55.90;;;;;;6197084;23;20461;-94
2021/09/12 09:34:19;;;;;;;2.63;2.43;;;35.30;54.10;;;;;;6195780;23;20442;-94
2021/09/12 09:36:47;;;;;;;2.80;2.60;;;35.90;51.30;;;;;;6197540;23;20448;-94
2021/09/12 09:39:15;;;;;;;2.90;2.70;;;36.30;49.80;;;;;;6198853;23;20460;-93
2021/09/12 09:51:58;;;;;;;2.17;1.97;;;38.00;43.90;;;;;;6190943;23;20531;-93
2021/09/12 09:54:27;;;;;;;2.20;1.73;;;38.10;42.70;;;;;;6210000;23;20458;-93
2021/09/12 09:56:55;;;;;;;2.90;2.20;;;37.80;42.50;;;;;;6209744;23;20406;-94
2021/09/12 09:59:24;;;;;;;2.90;2.50;;;36.90;43.40;;;;;;6206256;23;20430;-92
2021/09/12 10:01:53;;;;;;;1.77;1.67;;;35.80;45.00;;;;;;6211725;23;20441;-93
2021/09/12 10:04:22;;;;;;;2.00;1.80;;;36.30;45.50;;;;;;6210883;23;20413;-94
2021/09/12 10:06:50;;;;;;;2.50;2.30;;;38.00;43.60;;;;;;6207764;23;20419;-95
2021/09/12 10:09:19;;;;;;;2.20;2.00;;;38.70;41.80;;;;;;6208069;23;20427;-94
2021/09/12 10:39:35;;;;;;;2.50;2.00;;;40.70;34.70;;;;;;6198240;23;20445;-95
2021/09/12 10:42:21;;;;;;;2.07;1.40;;;41.50;33.30;;;;;;6199781;23;20461;-94
2021/09/12 10:48:20;;;;;;;2.00;1.40;;;41.90;32.60;;;;;;6149642;23;20382;-95
2021/09/12 10:50:47;;;;;;;3.03;2.07;;;41.60;32.70;;;;;;6199350;23;20430;-96
2021/09/12 10:53:15;;;;;;;3.17;1.73;;;41.40;33.20;;;;;;6194541;23;20901;-93
2021/09/12 10:56:04;;;;;;;1.97;1.77;;;42.00;32.30;;;;;;6194370;23;20796;-93
2021/09/12 10:58:32;;;;;;;3.63;1.97;;;42.10;32.20;;;;;;6193894;23;20473;-93
2021/09/12 11:01:00;;;;;;;1.90;1.60;;;42.60;31.80;;;;;;6199986;23;20489;-93
2021/09/12 11:03:28;;;;;;;2.00;1.80;;;43.40;30.80;;;;;;6199195;23;20497;-93
2021/09/12 11:05:56;;;;;;;2.07;1.87;;;41.20;31.40;;;;;;6205088;23;20417;-96
2021/09/12 11:08:34;;;;;;;1.90;1.80;;;40.60;32.20;;;;;;6212011;23;20433;-95
2021/09/12 11:11:02;;;;;;;1.80;1.70;;;37.70;35.50;;;;;;6209249;23;20444;-95
2021/09/12 11:13:30;;;;;;;2.20;1.60;;;37.90;37.10;;;;;;6206569;23;20402;-94
2021/09/12 11:16:06;;;;;;;1.67;1.57;;;39.20;35.50;;;;;;6212596;23;20431;-92
2021/09/12 11:18:43;;;;;;;2.20;1.80;;;39.40;34.60;;;;;;6207409;23;20452;-93
2021/09/12 11:21:11;;;;;;;2.63;1.97;;;37.50;35.90;;;;;;6198107;23;20425;-93
2021/09/12 11:23:40;;;;;;;3.70;2.53;;;36.70;36.90;;;;;;6196455;23;20501;-93
2021/09/12 11:26:08;;;;;;;3.67;2.83;;;37.40;37.40;;;;;;6196356;23;20415;-93
2021/09/12 11:28:35;;;;;;;2.27;1.80;;;38.40;36.30;;;;;;6196358;23;20409;-93
2021/09/12 11:31:02;;;;;;;2.13;1.93;;;39.90;34.70;;;;;;6203469;23;20422;-93
2021/09/12 11:33:49;;;;;;;2.23;2.07;;;41.00;33.10;;;;;;6199250;23;20425;-94
2021/09/12 11:36:17;;;;;;;2.00;1.90;;;41.80;31.80;;;;;;6210926;23;20492;-93
2021/09/12 11:38:53;;;;;;;3.30;2.50;;;41.70;32.00;;;;;;6207076;23;20473;-94
2021/09/12 11:41:23;;;;;;;2.27;2.07;;;42.50;31.40;;;;;;6196153;23;20501;-94
2021/09/12 11:43:55;;;;;;;3.63;2.30;;;42.60;30.30;;;;;;6195562;23;20417;-94
2021/09/12 11:46:22;;;;;;;2.37;2.17;;;42.30;30.60;;;;;;6210762;23;20406;-93
2021/09/12 11:48:56;;;;;;;2.33;2.13;;;43.00;30.40;;;;;;6198792;23;20421;-94
2021/09/12 11:55:17;;;;;;;3.37;2.10;;;42.80;30.10;;;;;;6151967;23;20533;-93
2021/09/12 12:01:32;;;;;;;2.33;2.20;;;41.00;31.90;;;;;;6194224;23;20433;-93
2021/09/12 12:04:30;;;;;;;2.03;1.90;;;40.70;32.50;;;;;;6200172;23;20405;-94
2021/09/12 12:07:41;;;;;;;2.53;2.30;;;41.30;32.20;;;;;;6199933;23;20402;-93
2021/09/12 12:10:49;;;;;;;;;;;;;;;;;;;;;
2021/09/12 12:14:06;;;;;;;3.80;2.40;;;40.30;32.80;;;;;;6197495;23;20393;-94
2021/09/12 12:17:42;;;;;;;2.47;2.27;;;40.50;33.50;;;;;;6199310;23;20413;-95
2021/09/12 12:20:55;;;;;;;2.20;1.93;;;40.70;32.40;;;;;;6205402;23;20398;-95
2021/09/12 12:24:06;;;;;;;2.10;1.90;;;42.20;31.30;;;;;;6206804;23;20412;-93
2021/09/12 12:30:33;;;;;;;2.20;2.00;;;42.30;30.10;;;;;;6120624;23;20425;-94
2021/09/12 12:33:02;;;;;;;2.77;2.57;;;39.30;33.00;;;;;;6195770;23;20528;-85
2021/09/12 12:35:30;;;;;;;2.43;2.20;;;37.50;35.90;;;;;;6194067;23;20473;-86
2021/09/12 12:37:57;;;;;;;3.47;2.77;;;37.40;36.40;;;;;;6197168;23;20402;-85
2021/09/12 12:40:24;;;;;;;2.30;1.93;;;37.90;36.50;;;;;;6194917;23;20412;-86
2021/09/12 12:43:01;;;;;;;2.00;1.80;;;37.90;36.30;;;;;;6196593;23;20437;-85
2021/09/12 12:45:29;;;;;;;2.50;2.30;;;37.90;36.50;;;;;;6194280;23;20401;-86
2021/09/12 12:47:58;;;;;;;2.67;2.47;;;36.70;38.10;;;;;;6196490;23;20414;-86
2021/09/12 12:50:34;;;;;;;2.50;2.30;;;35.10;40.00;;;;;;6191368;23;20405;-85
2021/09/12 12:53:14;;;;;;;2.57;2.37;;;34.30;41.80;;;;;;6189756;23;20868;-83
2021/09/12 12:55:42;;;;;;;2.50;2.30;;;35.70;40.90;;;;;;6200185;23;20515;-86
2021/09/12 12:58:12;;;;;;;3.30;2.50;;;37.50;39.20;;;;;;6192381;23;20449;-85
2021/09/12 13:00:39;;;;;;;2.20;2.07;;;37.60;36.80;;;;;;6200176;23;20457;-85
2021/09/12 13:03:06;;;;;;;2.97;2.40;;;37.70;36.80;;;;;;6194747;23;20433;-86
2021/09/12 13:05:35;;;;;;;2.50;2.30;;;38.40;36.20;;;;;;6191494;23;20413;-87
2021/09/12 13:08:05;;;;;;;3.43;2.17;;;39.30;35.50;;;;;;6193939;23;20407;-86
2021/09/12 13:10:33;;;;;;;2.43;2.23;;;39.40;35.40;;;;;;6190559;23;20425;-85
2021/09/12 13:13:00;;;;;;;5.70;2.97;;;39.40;35.00;;;;;;6187822;23;20418;-85
2021/09/12 13:15:27;;;;;;;4.13;2.57;;;39.40;35.10;;;;;;6191163;23;20626;-85
2021/09/12 13:17:53;;;;;;;2.83;2.33;;;39.20;34.80;;;;;;6199798;23;20406;-85
2021/09/12 13:20:20;;;;;;;2.63;2.30;;;38.10;35.70;;;;;;6193280;23;20470;-86
2021/09/12 13:22:48;;;;;;;3.50;3.20;;;37.50;36.80;;;;;;6196174;23;20425;-85
2021/09/12 13:25:15;;;;;;;3.13;2.90;;;36.70;37.60;;;;;;6191915;23;20402;-85
2021/09/12 13:27:42;;;;;;;2.97;2.67;;;35.60;38.90;;;;;;6189793;23;20413;-86
2021/09/12 13:30:09;;;;;;;2.83;2.30;;;34.50;40.50;;;;;;6190766;23;20744;-84
2021/09/12 13:32:36;;;;;;;3.37;3.07;;;33.60;42.20;;;;;;6190210;23;20448;-84
2021/09/12 13:35:03;;;;;;;2.37;2.17;;;32.80;43.20;;;;;;6188331;23;20452;-85
2021/09/12 13:37:30;;;;;;;3.17;2.97;;;32.50;44.40;;;;;;6190945;23;20409;-84
2021/09/12 13:39:58;;;;;;;4.10;2.90;;;32.40;45.20;;;;;;6192204;23;20414;-86
2021/09/12 13:42:25;;;;;;;2.53;2.33;;;32.10;45.60;;;;;;6202813;23;20440;-83
2021/09/12 13:44:51;;;;;;;2.50;2.30;;;31.60;46.20;;;;;;6212317;23;20390;-84
2021/09/12 13:47:18;;;;;;;3.10;2.80;;;31.40;46.70;;;;;;6205627;23;20409;-85
2021/09/12 13:49:45;;;;;;;2.67;2.23;;;31.20;47.10;;;;;;6207663;23;20404;-84
2021/09/12 13:52:12;;;;;;;2.63;2.43;;;31.60;46.30;;;;;;6206668;23;20952;-85
2021/09/12 13:54:40;;;;;;;2.67;2.47;;;31.60;46.50;;;;;;6201146;23;20438;-84
2021/09/12 13:57:08;;;;;;;4.40;2.10;;;31.60;46.70;;;;;;6198694;23;20416;-85
2021/09/12 13:59:35;;;;;;;2.60;2.40;;;31.90;46.90;;;;;;6207563;23;20458;-88
2021/09/12 14:02:02;;;;;;;3.43;2.50;;;31.70;46.40;;;;;;6200617;23;20516;-86
2021/09/12 14:04:28;;;;;;;2.53;2.33;;;31.80;47.00;;;;;;6211238;23;20405;-83
2021/09/12 14:06:55;;;;;;;2.53;2.33;;;31.90;46.80;;;;;;6213106;23;20412;-85
2021/09/12 14:09:22;;;;;;;2.83;2.63;;;31.80;46.70;;;;;;6209067;23;20416;-86
2021/09/12 14:11:49;;;;;;;2.60;2.40;;;30.90;47.70;;;;;;6198079;23;20422;-85
2021/09/12 14:14:17;;;;;;;2.97;2.70;;;29.70;50.10;;;;;;6195912;23;20402;-85
2021/09/12 14:16:44;;;;;;;2.70;2.20;;;29.30;51.30;;;;;;6194430;23;20409;-87
2021/09/12 14:19:11;;;;;;;3.40;2.70;;;29.30;52.20;;;;;;6193558;23;20413;-85
2021/09/12 14:21:37;;;;;;;3.50;2.83;;;29.70;51.40;;;;;;6192867;23;20444;-86
2021/09/12 14:24:05;;;;;;;2.70;2.50;;;29.80;50.90;;;;;;6197709;23;20466;-86
2021/09/12 14:26:31;;;;;;;2.97;2.67;;;29.70;51.30;;;;;;6195494;23;20413;-85
2021/09/12 14:28:58;;;;;;;2.50;2.30;;;29.50;51.70;;;;;;6193842;23;20410;-86
2021/09/12 14:31:26;;;;;;;2.93;2.73;;;29.40;52.20;;;;;;6195990;23;20430;-86
2021/09/12 14:33:53;;;;;;;2.43;2.23;;;29.10;52.50;;;;;;6203592;23;20387;-85
2021/09/12 14:36:19;;;;;;;4.20;2.30;;;28.80;53.10;;;;;;6199048;23;20442;-87
2021/09/12 14:38:46;;;;;;;2.97;2.70;;;28.60;53.40;;;;;;6198013;23;20420;-85
2021/09/12 14:41:13;;;;;;;2.40;2.20;;;28.40;53.30;;;;;;6203663;23;20416;-86
2021/09/12 14:43:39;;;;;;;3.60;2.33;;;28.50;53.70;;;;;;6209104;23;20417;-85
2021/09/12 14:46:06;;;;;;;5.77;2.83;;;28.50;53.70;;;;;;6200647;23;20406;-85
2021/09/12 14:48:34;;;;;;;3.90;2.50;;;28.70;53.50;;;;;;6197622;23;20411;-86
2021/09/12 14:51:01;;;;;;;2.37;2.17;;;28.70;53.50;;;;;;6198254;23;20713;-86
2021/09/12 14:53:30;;;;;;;3.00;2.30;;;28.80;53.50;;;;;;6201683;23;20739;-85
2021/09/12 14:55:57;;;;;;;2.70;2.47;;;28.90;53.10;;;;;;6204370;23;20426;-85
2021/09/12 14:58:24;;;;;;;3.03;2.20;;;28.90;53.00;;;;;;6203944;23;20417;-84
2021/09/12 15:00:50;;;;;;;3.00;2.70;;;28.80;53.30;;;;;;6207046;23;20406;-85
2021/09/12 15:03:17;;;;;;;2.20;2.10;;;28.80;53.10;;;;;;6194451;23;20429;-85
2021/09/12 15:05:45;;;;;;;2.53;2.20;;;29.10;53.20;;;;;;6191697;23;20896;-84
2021/09/12 15:08:12;;;;;;;8.13;2.63;;;29.40;52.30;;;;;;6195062;23;20477;-84
2021/09/12 15:10:39;;;;;;;2.50;2.30;;;29.40;52.60;;;;;;6197778;23;20409;-86
2021/09/12 15:13:07;;;;;;;4.93;2.40;;;29.10;52.10;;;;;;6205458;23;20514;-85
2021/09/12 15:15:34;;;;;;;2.30;2.07;;;29.20;52.40;;;;;;6203762;23;20452;-85
2021/09/12 15:18:01;;;;;;;2.97;2.40;;;29.70;51.40;;;;;;6201528;23;20904;-84
2021/09/12 15:20:28;;;;;;;4.20;3.90;;;30.00;50.10;;;;;;6205443;23;20412;-84
2021/09/12 15:22:57;;;;;;;4.43;2.73;;;30.10;50.30;;;;;;6199892;23;20422;-84
2021/09/12 15:25:24;;;;;;;2.53;2.33;;;30.20;50.50;;;;;;6201750;23;20412;-84
2021/09/12 15:27:52;;;;;;;2.10;1.90;;;30.10;50.40;;;;;;6210731;23;20398;-85
2021/09/12 15:30:18;;;;;;;2.37;2.20;;;30.10;50.40;;;;;;6206140;23;20413;-85
2021/09/12 15:32:45;;;;;;;2.43;2.20;;;30.20;50.40;;;;;;6200618;23;20430;-85
2021/09/12 15:35:12;;;;;;;2.97;2.77;;;30.10;49.90;;;;;;6201261;23;20847;-85
2021/09/12 15:37:39;;;;;;;2.17;2.07;;;30.10;51.00;;;;;;6200140;23;20405;-84
2021/09/12 15:40:10;;;;;;;5.30;4.83;;;29.90;50.80;;;;;;6199547;23;20413;-84
2021/09/12 15:42:36;;;;;;;4.57;4.17;;;29.50;51.40;;;;;;6200975;23;20453;-84
2021/09/12 15:45:04;;;;;;;3.67;2.40;;;28.70;53.20;;;;;;6199011;23;20406;-85
2021/09/12 15:47:31;;;;;;;4.07;3.22;;;27.70;54.80;;;;;;6197269;23;20486;-85
2021/09/12 15:49:58;;;;;;;2.80;2.60;;;27.10;56.50;;;;;;6200556;23;20178;-85
2021/09/12 15:52:24;;;;;;;5.10;3.37;;;26.60;58.00;;;;;;6197854;23;20427;-86
2021/09/12 15:54:51;;;;;;;3.10;2.90;;;26.30;59.70;;;;;;6199588;23;20424;-85
2021/09/12 15:57:19;;;;;;;2.53;2.33;;;26.10;59.80;;;;;;6199202;23;20411;-84
2021/09/12 15:59:46;;;;;;;3.23;3.03;;;26.00;60.30;;;;;;6207097;23;20399;-84
2021/09/12 16:02:13;;;;;;;4.40;4.00;;;25.90;60.20;;;;;;6208064;23;20513;-87
2021/09/12 16:04:39;;;;;;;3.03;2.83;;;25.80;62.20;;;;;;6202814;23;20473;-89
2021/09/12 16:07:06;;;;;;;4.40;2.97;;;25.70;61.70;;;;;;6203370;23;20409;-84
2021/09/12 16:09:33;;;;;;;3.47;3.17;;;25.70;61.80;;;;;;6208173;23;20386;-82
2021/09/12 16:11:59;;;;;;;8.87;2.63;;;25.60;62.60;;;;;;6207465;23;20426;-84
2021/09/12 16:14:28;;;;;;;3.90;2.63;;;25.50;62.70;;;;;;6211817;23;20393;-82
2021/09/12 16:16:54;;;;;;;3.77;2.73;;;25.50;63.30;;;;;;6205309;23;20441;-85
2021/09/12 16:19:22;;;;;;;4.30;2.63;;;25.40;62.90;;;;;;6200149;23;20409;-83
2021/09/12 16:21:48;;;;;;;2.70;2.50;;;25.30;63.50;;;;;;6207293;23;20461;-81
2021/09/12 16:24:16;;;;;;;4.00;2.87;;;25.20;64.20;;;;;;6201272;23;20777;-84
2021/09/12 16:26:43;;;;;;;3.03;2.83;;;25.10;64.60;;;;;;6197174;23;20420;-85
2021/09/12 16:29:10;;;;;;;2.73;2.53;;;25.00;65.50;;;;;;6203949;23;20445;-83
2021/09/12 16:31:40;;;;;;;3.63;3.23;;;24.80;65.80;;;;;;6196780;23;20536;-83
2021/09/12 16:34:13;;;;;;;4.50;4.10;;;24.80;66.00;;;;;;6196815;23;20414;-82
2021/09/12 16:36:41;;;;;;;4.30;3.90;;;24.70;66.60;;;;;;6198518;23;20437;-84
2021/09/12 16:39:08;;;;;;;8.33;3.90;;;24.60;67.40;;;;;;6199478;23;20402;-82
2021/09/12 16:41:35;;;;;;;6.40;2.80;;;24.50;67.50;;;;;;6198256;23;20426;-83
2021/09/12 16:44:02;;;;;;;4.10;3.60;;;24.50;67.80;;;;;;6200136;23;20396;-85
2021/09/12 16:46:48;;;;;;;4.70;3.07;;;24.50;67.60;;;;;;6179741;23;20406;-86
2021/09/12 16:49:16;;;;;;;6.33;2.60;;;24.40;68.10;;;;;;6200369;23;20452;-84
2021/09/12 16:51:43;;;;;;;5.67;2.87;;;24.30;68.70;;;;;;6204587;23;20438;-86
2021/09/12 16:54:10;;;;;;;4.67;3.10;;;24.30;69.20;;;;;;6207633;23;20406;-85
2021/09/12 16:56:37;;;;;;;2.73;2.53;;;24.30;69.10;;;;;;6197773;23;20437;-87
2021/09/12 16:59:04;;;;;;;4.37;3.47;;;24.20;69.60;;;;;;6200031;23;20410;-86
2021/09/12 17:01:31;;;;;;;3.20;3.00;;;24.10;70.00;;;;;;6198397;23;21240;-86
2021/09/12 17:03:58;;;;;;;3.50;3.20;;;24.00;70.60;;;;;;6194438;23;20393;-86
2021/09/12 17:06:32;;;;;;;2.93;2.63;;;23.90;70.80;;;;;;6202322;23;20406;-87
2021/09/12 17:08:59;;;;;;;3.50;3.20;;;23.90;71.10;;;;;;6194346;23;20407;-87
2021/09/12 17:11:27;;;;;;;5.17;4.43;;;23.90;71.40;;;;;;6196389;23;20426;-86
2021/09/12 17:13:54;;;;;;;3.87;3.57;;;23.80;71.80;;;;;;6207009;23;20460;-85
2021/09/12 17:16:20;;;;;;;3.67;3.20;;;23.70;72.70;;;;;;6203794;23;20480;-84
2021/09/12 17:18:47;;;;;;;4.07;3.67;;;23.70;73.50;;;;;;6203148;23;20412;-85
2021/09/12 17:21:14;;;;;;;4.20;3.80;;;23.60;73.60;;;;;;6203654;23;20426;-85
2021/09/12 17:23:42;;;;;;;3.87;3.33;;;23.60;74.00;;;;;;6210091;23;20485;-84
2021/09/12 17:26:09;;;;;;;4.83;4.43;;;23.50;74.20;;;;;;6204848;23;20437;-84
2021/09/12 17:28:36;;;;;;;6.90;4.57;;;23.50;74.70;;;;;;6202677;23;20416;-84
2021/09/12 17:31:03;;;;;;;4.80;4.40;;;23.40;75.10;;;;;;6201523;23;20405;-86
2021/09/12 17:33:30;;;;;;;4.33;4.03;;;23.40;75.30;;;;;;6206135;23;20394;-86
2021/09/12 17:35:56;;;;;;;3.83;3.53;;;23.30;75.90;;;;;;6205175;23;20461;-85
2021/09/12 17:38:23;;;;;;;5.13;4.73;;;23.30;76.20;;;;;;6201163;23;20488;-85
2021/09/12 17:40:51;;;;;;;5.20;4.80;;;23.20;76.80;;;;;;6202790;23;20411;-86
2021/09/12 17:43:18;;;;;;;7.20;5.33;;;23.20;77.10;;;;;;6201300;23;20426;-85
2021/09/12 17:45:45;;;;;;;4.93;4.53;;;23.10;77.30;;;;;;6197084;23;20405;-85
2021/09/12 17:48:11;;;;;;;5.53;5.00;;;23.10;77.50;;;;;;6196379;23;20405;-85
2021/09/12 17:50:38;;;;;;;7.80;6.17;;;23.10;77.90;;;;;;6204970;23;20394;-85
2021/09/12 17:53:05;;;;;;;7.17;6.00;;;22.90;78.30;;;;;;6199986;23;20453;-85
2021/09/12 17:55:32;;;;;;;6.37;5.80;;;22.90;78.80;;;;;;6204221;23;20409;-85
2021/09/12 17:58:00;;;;;;;4.77;4.37;;;22.80;79.00;;;;;;6200157;23;20430;-86
2021/09/12 18:00:27;;;;;;;4.83;4.43;;;22.80;79.70;;;;;;6202540;23;20405;-86
2021/09/12 18:02:53;;;;;;;4.80;4.40;;;22.70;80.00;;;;;;6202371;23;20456;-85
2021/09/12 18:05:20;;;;;;;5.50;4.93;;;22.70;80.30;;;;;;6199800;23;20469;-84
2021/09/12 18:07:47;;;;;;;5.17;4.77;;;22.60;80.40;;;;;;6201037;23;20413;-84
2021/09/12 18:10:14;;;;;;;5.80;5.27;;;22.60;81.00;;;;;;6201041;23;20405;-86
2021/09/12 18:12:40;;;;;;;7.43;5.33;;;22.50;81.40;;;;;;6203576;23;20425;-83
2021/09/12 18:15:09;;;;;;;6.40;5.80;;;22.50;81.80;;;;;;6206278;23;20452;-83
2021/09/12 18:17:36;;;;;;;5.53;5.10;;;22.40;82.10;;;;;;6202137;23;20443;-83
2021/09/12 18:20:04;;;;;;;4.90;4.50;;;22.40;82.30;;;;;;6200807;23;20412;-84
2021/09/12 18:22:31;;;;;;;5.27;4.80;;;22.30;82.80;;;;;;6202664;23;20409;-85
2021/09/12 18:24:57;;;;;;;5.40;4.90;;;22.20;83.70;;;;;;6206274;23;20413;-86
2021/09/12 18:27:24;;;;;;;5.47;4.97;;;22.10;84.10;;;;;;6203664;23;20405;-85
2021/09/12 18:29:51;;;;;;;4.53;4.13;;;22.00;84.40;;;;;;6207196;23;20494;-86
2021/09/12 18:32:19;;;;;;;6.60;5.80;;;21.90;85.70;;;;;;6203880;23;20474;-81
2021/09/12 18:34:46;;;;;;;4.67;4.27;;;21.90;86.40;;;;;;6199084;23;20747;-81
2021/09/12 18:37:14;;;;;;;4.83;4.43;;;21.80;86.80;;;;;;6193681;23;20620;-81
2021/09/12 18:39:45;;;;;;;11.50;6.37;;;21.70;87.90;;;;;;6185441;23;20511;-83
2021/09/12 18:42:12;;;;;;;6.80;4.47;;;21.70;88.60;;;;;;6193458;23;20463;-80
2021/09/12 18:44:39;;;;;;;8.07;7.27;;;21.60;89.00;;;;;;6194099;23;20406;-80
2021/09/12 18:47:05;;;;;;;7.20;3.83;;;21.60;89.30;;;;;;6195526;23;20395;-81
2021/09/12 18:49:33;;;;;;;20.43;16.27;;;21.50;89.60;;;;;;6198341;23;20396;-81